Portada
METAR-TAF:

METAR-TAF

Aeroports :

Aeroport Internacional Hassan I

Al-Aaiun, Marroc

latitud: 27-10N, longitud: 013-12-59W, altitud: 6 m

METAR: manca

Hora: 08:23 (07:23 UTC)

Pronòstic

L'informe es va fer fa 2 hores i 23 minuts, a les 05:00 UTC
Pronòstic vàlid del 28 a les 06 UTC al 29 a les 12 UTC
Vent 8 kt del Nord/Nord-Est
Visibilitat: 6000 m
Cel ennuvolat a una alçada de 1000 ft
Evolucionant progressivament
l' 28 a les 10 UTC al 28 a les 12 UTC
Evolucionant progressivament
l' 28 a les 20 UTC al 28 a les 23 UTC
Cel ennuvolat a una alçada de 1000 ft

TAF: GMML 280500Z 2806/2912 02008KT 6000 BKN010 BECMG 2810/2812 NSC BECMG 2820/2823 BKN010

Observacions i pronòstics meteorològics de més de 4000 aeroports (METAR i TAF).

Les estacions disponibles són els punts grocs i vermells al mapa.

Posi el ratolí al punt desitjat per veure el nom de l'estació.

Feu clic per veure les observacions i els pronòstics meteorològics.

Per canviar el mapa: feu clic els botons verds amb una creu de color negre per apropar; al botó verd amb un guió per allunyar la imatge; o en les fletxes verdes per a mapes adjacents.


METAR-TAF: